sensor_id;sensor_type;location;lat;lon;timestamp;temperature;humidity
2447;DHT22;26430;48.818;9.244;2023-01-24T00:00:40;3.50;99.90
2447;DHT22;26430;48.818;9.244;2023-01-24T00:03:06;3.50;99.90
2447;DHT22;26430;48.818;9.244;2023-01-24T00:05:38;3.50;99.90
2447;DHT22;26430;48.818;9.244;2023-01-24T00:08:04;3.50;99.90
2447;DHT22;26430;48.818;9.244;2023-01-24T00:10:30;3.50;99.90
2447;DHT22;26430;48.818;9.244;2023-01-24T00:12:57;3.50;99.90
2447;DHT22;26430;48.818;9.244;2023-01-24T00:15:23;3.40;99.90
2447;DHT22;26430;48.818;9.244;2023-01-24T00:17:48;3.60;99.90
2447;DHT22;26430;48.818;9.244;2023-01-24T00:20:15;3.60;99.90
2447;DHT22;26430;48.818;9.244;2023-01-24T00:22:42;3.60;99.90
2447;DHT22;26430;48.818;9.244;2023-01-24T00:25:07;3.50;99.90
2447;DHT22;26430;48.818;9.244;2023-01-24T00:27:34;3.50;99.90
2447;DHT22;26430;48.818;9.244;2023-01-24T00:30:01;3.50;99.90
2447;DHT22;26430;48.818;9.244;2023-01-24T00:32:27;3.30;99.90
2447;DHT22;26430;48.818;9.244;2023-01-24T00:34:52;3.30;99.90
2447;DHT22;26430;48.818;9.244;2023-01-24T00:37:18;3.20;99.90
2447;DHT22;26430;48.818;9.244;2023-01-24T00:39:44;3.20;99.90
2447;DHT22;26430;48.818;9.244;2023-01-24T00:42:09;3.20;99.90
2447;DHT22;26430;48.818;9.244;2023-01-24T00:44:35;3.30;99.90
2447;DHT22;26430;48.818;9.244;2023-01-24T00:47:00;3.30;99.90
2447;DHT22;26430;48.818;9.244;2023-01-24T00:49:26;3.20;99.90
2447;DHT22;26430;48.818;9.244;2023-01-24T00:51:52;3.30;99.90
2447;DHT22;26430;48.818;9.244;2023-01-24T00:54:17;3.30;99.90
2447;DHT22;26430;48.818;9.244;2023-01-24T00:56:43;3.30;99.90
2447;DHT22;26430;48.818;9.244;2023-01-24T00:59:09;3.30;99.90
2447;DHT22;26430;48.818;9.244;2023-01-24T01:01:35;3.40;99.90
2447;DHT22;26430;48.818;9.244;2023-01-24T01:04:01;3.40;99.90
2447;DHT22;26430;48.818;9.244;2023-01-24T01:06:26;3.30;99.90
2447;DHT22;26430;48.818;9.244;2023-01-24T01:08:52;3.40;99.90
2447;DHT22;26430;48.818;9.244;2023-01-24T01:11:18;3.30;99.90
2447;DHT22;26430;48.818;9.244;2023-01-24T01:13:44;3.40;99.90
2447;DHT22;26430;48.818;9.244;2023-01-24T01:16:15;3.40;99.90
2447;DHT22;26430;48.818;9.244;2023-01-24T01:18:42;3.50;99.90
2447;DHT22;26430;48.818;9.244;2023-01-24T01:21:12;3.40;99.90
2447;DHT22;26430;48.818;9.244;2023-01-24T01:23:39;3.50;99.90
2447;DHT22;26430;48.818;9.244;2023-01-24T01:26:07;3.50;99.90
2447;DHT22;26430;48.818;9.244;2023-01-24T01:28:34;3.50;99.90
2447;DHT22;26430;48.818;9.244;2023-01-24T01:31:01;3.40;99.90
2447;DHT22;26430;48.818;9.244;2023-01-24T01:33:27;3.60;99.90
2447;DHT22;26430;48.818;9.244;2023-01-24T01:35:52;3.60;99.90
2447;DHT22;26430;48.818;9.244;2023-01-24T01:38:19;3.30;99.90
2447;DHT22;26430;48.818;9.244;2023-01-24T01:40:45;3.30;99.90
2447;DHT22;26430;48.818;9.244;2023-01-24T01:43:22;3.50;99.90
2447;DHT22;26430;48.818;9.244;2023-01-24T01:45:50;3.50;99.90
2447;DHT22;26430;48.818;9.244;2023-01-24T01:50:58;3.70;99.90
2447;DHT22;26430;48.818;9.244;2023-01-24T01:53:28;3.60;99.90
2447;DHT22;26430;48.818;9.244;2023-01-24T01:55:59;3.60;99.90
2447;DHT22;26430;48.818;9.244;2023-01-24T01:58:27;3.50;99.90
2447;DHT22;26430;48.818;9.244;2023-01-24T02:00:53;3.60;99.90
2447;DHT22;26430;48.818;9.244;2023-01-24T02:03:28;3.60;99.90
2447;DHT22;26430;48.818;9.244;2023-01-24T02:06:10;3.60;99.90
2447;DHT22;26430;48.818;9.244;2023-01-24T02:08:36;3.60;99.90
2447;DHT22;26430;48.818;9.244;2023-01-24T02:11:02;3.40;99.90
2447;DHT22;26430;48.818;9.244;2023-01-24T02:13:47;3.50;99.90
2447;DHT22;26430;48.818;9.244;2023-01-24T02:16:15;3.50;99.90
2447;DHT22;26430;48.818;9.244;2023-01-24T02:18:42;3.50;99.90
2447;DHT22;26430;48.818;9.244;2023-01-24T02:21:14;3.60;99.90
2447;DHT22;26430;48.818;9.244;2023-01-24T02:26:22;3.50;99.90
2447;DHT22;26430;48.818;9.244;2023-01-24T02:28:58;3.50;99.90
2447;DHT22;26430;48.818;9.244;2023-01-24T02:31:25;3.50;99.90
2447;DHT22;26430;48.818;9.244;2023-01-24T02:33:51;3.40;99.90
2447;DHT22;26430;48.818;9.244;2023-01-24T02:36:32;3.60;99.90
2447;DHT22;26430;48.818;9.244;2023-01-24T02:39:09;3.60;99.90
2447;DHT22;26430;48.818;9.244;2023-01-24T02:41:43;3.60;99.90
2447;DHT22;26430;48.818;9.244;2023-01-24T02:44:18;3.50;99.90
2447;DHT22;26430;48.818;9.244;2023-01-24T02:46:45;3.60;99.90
2447;DHT22;26430;48.818;9.244;2023-01-24T02:49:11;3.60;99.90
2447;DHT22;26430;48.818;9.244;2023-01-24T02:51:37;3.60;99.90
2447;DHT22;26430;48.818;9.244;2023-01-24T02:54:21;3.60;99.90
2447;DHT22;26430;48.818;9.244;2023-01-24T02:56:47;3.60;99.90
2447;DHT22;26430;48.818;9.244;2023-01-24T02:59:31;3.60;99.90
2447;DHT22;26430;48.818;9.244;2023-01-24T03:01:57;3.60;99.90
2447;DHT22;26430;48.818;9.244;2023-01-24T03:04:23;3.60;99.90
2447;DHT22;26430;48.818;9.244;2023-01-24T03:06:48;3.50;99.90
2447;DHT22;26430;48.818;9.244;2023-01-24T03:09:15;3.50;99.90
2447;DHT22;26430;48.818;9.244;2023-01-24T03:11:47;3.50;99.90
2447;DHT22;26430;48.818;9.244;2023-01-24T03:14:14;3.50;99.90
2447;DHT22;26430;48.818;9.244;2023-01-24T03:16:59;3.40;99.90
2447;DHT22;26430;48.818;9.244;2023-01-24T03:19:43;3.40;99.90
2447;DHT22;26430;48.818;9.244;2023-01-24T03:22:27;3.40;99.90
2447;DHT22;26430;48.818;9.244;2023-01-24T03:25:12;3.30;99.90
2447;DHT22;26430;48.818;9.244;2023-01-24T03:27:58;3.30;99.90
2447;DHT22;26430;48.818;9.244;2023-01-24T03:30:45;3.40;99.90
2447;DHT22;26430;48.818;9.244;2023-01-24T03:33:29;3.40;99.90
2447;DHT22;26430;48.818;9.244;2023-01-24T03:36:13;3.50;99.90
2447;DHT22;26430;48.818;9.244;2023-01-24T03:38:45;3.50;99.90
2447;DHT22;26430;48.818;9.244;2023-01-24T03:41:30;3.40;99.90
2447;DHT22;26430;48.818;9.244;2023-01-24T03:43:55;3.50;99.90
2447;DHT22;26430;48.818;9.244;2023-01-24T03:46:21;3.50;99.90
2447;DHT22;26430;48.818;9.244;2023-01-24T03:48:47;3.50;99.90
2447;DHT22;26430;48.818;9.244;2023-01-24T03:51:12;3.50;99.90
2447;DHT22;26430;48.818;9.244;2023-01-24T03:53:56;3.60;99.90
2447;DHT22;26430;48.818;9.244;2023-01-24T03:56:22;3.60;99.90
2447;DHT22;26430;48.818;9.244;2023-01-24T03:58:48;3.60;99.90
2447;DHT22;26430;48.818;9.244;2023-01-24T04:01:13;3.50;99.90
2447;DHT22;26430;48.818;9.244;2023-01-24T04:03:39;3.50;99.90
2447;DHT22;26430;48.818;9.244;2023-01-24T04:06:05;3.40;99.90
2447;DHT22;26430;48.818;9.244;2023-01-24T04:08:31;3.30;99.90
2447;DHT22;26430;48.818;9.244;2023-01-24T04:10:57;3.40;99.90
2447;DHT22;26430;48.818;9.244;2023-01-24T04:13:23;3.40;99.90
2447;DHT22;26430;48.818;9.244;2023-01-24T04:15:49;3.40;99.90
2447;DHT22;26430;48.818;9.244;2023-01-24T04:18:14;3.40;99.90
2447;DHT22;26430;48.818;9.244;2023-01-24T04:20:40;3.40;99.90
2447;DHT22;26430;48.818;9.244;2023-01-24T04:23:07;3.40;99.90
2447;DHT22;26430;48.818;9.244;2023-01-24T04:25:33;3.30;99.90
2447;DHT22;26430;48.818;9.244;2023-01-24T04:28:00;3.40;99.90
2447;DHT22;26430;48.818;9.244;2023-01-24T04:30:26;3.40;99.90
2447;DHT22;26430;48.818;9.244;2023-01-24T04:32:52;3.40;99.90
2447;DHT22;26430;48.818;9.244;2023-01-24T04:35:21;3.40;99.90
2447;DHT22;26430;48.818;9.244;2023-01-24T04:37:47;3.40;99.90
2447;DHT22;26430;48.818;9.244;2023-01-24T04:40:13;3.30;99.90
2447;DHT22;26430;48.818;9.244;2023-01-24T04:42:40;3.30;99.90
2447;DHT22;26430;48.818;9.244;2023-01-24T04:45:07;3.30;99.90
2447;DHT22;26430;48.818;9.244;2023-01-24T04:47:33;3.40;99.90
2447;DHT22;26430;48.818;9.244;2023-01-24T04:49:58;3.30;99.90
2447;DHT22;26430;48.818;9.244;2023-01-24T04:52:24;3.30;99.90
2447;DHT22;26430;48.818;9.244;2023-01-24T04:54:50;3.40;99.90
2447;DHT22;26430;48.818;9.244;2023-01-24T04:57:17;3.30;99.90
2447;DHT22;26430;48.818;9.244;2023-01-24T04:59:43;3.30;99.90
2447;DHT22;26430;48.818;9.244;2023-01-24T05:02:09;3.30;99.90
2447;DHT22;26430;48.818;9.244;2023-01-24T05:04:35;3.30;99.90
2447;DHT22;26430;48.818;9.244;2023-01-24T05:07:01;3.30;99.90
2447;DHT22;26430;48.818;9.244;2023-01-24T05:09:26;3.30;99.90
2447;DHT22;26430;48.818;9.244;2023-01-24T05:11:52;3.30;99.90
2447;DHT22;26430;48.818;9.244;2023-01-24T05:14:18;3.30;99.90
2447;DHT22;26430;48.818;9.244;2023-01-24T05:16:43;3.40;99.90
2447;DHT22;26430;48.818;9.244;2023-01-24T05:19:09;3.30;99.90
2447;DHT22;26430;48.818;9.244;2023-01-24T05:21:35;3.30;99.90
2447;DHT22;26430;48.818;9.244;2023-01-24T05:24:00;3.30;99.90
2447;DHT22;26430;48.818;9.244;2023-01-24T05:26:26;3.30;99.90
2447;DHT22;26430;48.818;9.244;2023-01-24T05:28:53;3.40;99.90
2447;DHT22;26430;48.818;9.244;2023-01-24T05:31:19;3.40;99.90
2447;DHT22;26430;48.818;9.244;2023-01-24T05:33:45;3.40;99.90
2447;DHT22;26430;48.818;9.244;2023-01-24T05:36:16;3.30;99.90
2447;DHT22;26430;48.818;9.244;2023-01-24T05:38:43;3.30;99.90
2447;DHT22;26430;48.818;9.244;2023-01-24T05:41:10;3.40;99.90
2447;DHT22;26430;48.818;9.244;2023-01-24T05:43:37;3.40;99.90
2447;DHT22;26430;48.818;9.244;2023-01-24T05:46:09;3.40;99.90
2447;DHT22;26430;48.818;9.244;2023-01-24T05:48:35;3.40;99.90
2447;DHT22;26430;48.818;9.244;2023-01-24T05:51:07;3.40;99.90
2447;DHT22;26430;48.818;9.244;2023-01-24T05:53:35;3.30;99.90
2447;DHT22;26430;48.818;9.244;2023-01-24T05:56:03;3.40;99.90
2447;DHT22;26430;48.818;9.244;2023-01-24T05:58:32;3.30;99.90
2447;DHT22;26430;48.818;9.244;2023-01-24T06:00:58;3.40;99.90
2447;DHT22;26430;48.818;9.244;2023-01-24T06:03:24;3.40;99.90
2447;DHT22;26430;48.818;9.244;2023-01-24T06:05:53;3.30;99.90
2447;DHT22;26430;48.818;9.244;2023-01-24T06:08:20;3.40;99.90
2447;DHT22;26430;48.818;9.244;2023-01-24T06:10:46;3.40;99.90
2447;DHT22;26430;48.818;9.244;2023-01-24T06:13:13;3.40;99.90
2447;DHT22;26430;48.818;9.244;2023-01-24T06:15:40;3.40;99.90
2447;DHT22;26430;48.818;9.244;2023-01-24T06:18:08;3.30;99.90
2447;DHT22;26430;48.818;9.244;2023-01-24T06:20:38;3.30;99.90
2447;DHT22;26430;48.818;9.244;2023-01-24T06:23:05;3.30;99.90
2447;DHT22;26430;48.818;9.244;2023-01-24T06:25:32;3.30;99.90
2447;DHT22;26430;48.818;9.244;2023-01-24T06:27:58;3.30;99.90
2447;DHT22;26430;48.818;9.244;2023-01-24T06:30:24;3.40;99.90
2447;DHT22;26430;48.818;9.244;2023-01-24T06:38:23;3.40;99.90
2447;DHT22;26430;48.818;9.244;2023-01-24T06:40:52;3.30;99.90
2447;DHT22;26430;48.818;9.244;2023-01-24T06:43:19;3.30;99.90
2447;DHT22;26430;48.818;9.244;2023-01-24T06:45:45;3.30;99.90
2447;DHT22;26430;48.818;9.244;2023-01-24T06:48:11;3.30;99.90
2447;DHT22;26430;48.818;9.244;2023-01-24T06:50:36;3.30;99.90
2447;DHT22;26430;48.818;9.244;2023-01-24T06:53:02;3.20;99.90
2447;DHT22;26430;48.818;9.244;2023-01-24T06:55:28;3.20;99.90
2447;DHT22;26430;48.818;9.244;2023-01-24T06:57:57;3.20;99.90
2447;DHT22;26430;48.818;9.244;2023-01-24T07:00:22;3.20;99.90
2447;DHT22;26430;48.818;9.244;2023-01-24T07:02:55;3.20;99.90
2447;DHT22;26430;48.818;9.244;2023-01-24T07:05:21;3.20;99.90
2447;DHT22;26430;48.818;9.244;2023-01-24T07:07:47;3.20;99.90
2447;DHT22;26430;48.818;9.244;2023-01-24T07:10:12;3.20;99.90
2447;DHT22;26430;48.818;9.244;2023-01-24T07:12:39;3.20;99.90
2447;DHT22;26430;48.818;9.244;2023-01-24T07:15:06;3.30;99.90
2447;DHT22;26430;48.818;9.244;2023-01-24T07:17:32;3.20;99.90
2447;DHT22;26430;48.818;9.244;2023-01-24T07:19:58;3.20;99.90
2447;DHT22;26430;48.818;9.244;2023-01-24T07:22:24;3.20;99.90
2447;DHT22;26430;48.818;9.244;2023-01-24T07:24:50;3.30;99.90
2447;DHT22;26430;48.818;9.244;2023-01-24T07:27:16;3.30;99.90
2447;DHT22;26430;48.818;9.244;2023-01-24T07:29:42;3.30;99.90
2447;DHT22;26430;48.818;9.244;2023-01-24T07:32:09;3.40;99.90
2447;DHT22;26430;48.818;9.244;2023-01-24T07:34:35;3.40;99.90
2447;DHT22;26430;48.818;9.244;2023-01-24T07:37:00;3.40;99.90
2447;DHT22;26430;48.818;9.244;2023-01-24T07:39:29;3.30;99.90
2447;DHT22;26430;48.818;9.244;2023-01-24T07:41:55;3.30;99.90
2447;DHT22;26430;48.818;9.244;2023-01-24T07:44:20;3.40;99.90
2447;DHT22;26430;48.818;9.244;2023-01-24T07:46:46;3.50;99.90
2447;DHT22;26430;48.818;9.244;2023-01-24T07:49:11;3.50;99.90
2447;DHT22;26430;48.818;9.244;2023-01-24T07:51:37;3.40;99.90
2447;DHT22;26430;48.818;9.244;2023-01-24T07:54:03;3.40;99.90
2447;DHT22;26430;48.818;9.244;2023-01-24T07:56:28;3.40;99.90
2447;DHT22;26430;48.818;9.244;2023-01-24T07:58:54;3.40;99.90
2447;DHT22;26430;48.818;9.244;2023-01-24T08:01:22;3.50;99.90
2447;DHT22;26430;48.818;9.244;2023-01-24T08:03:48;3.50;99.90
2447;DHT22;26430;48.818;9.244;2023-01-24T08:06:14;3.50;99.90
2447;DHT22;26430;48.818;9.244;2023-01-24T08:08:40;3.50;99.90
2447;DHT22;26430;48.818;9.244;2023-01-24T08:11:06;3.50;99.90
2447;DHT22;26430;48.818;9.244;2023-01-24T08:13:32;3.50;99.90
2447;DHT22;26430;48.818;9.244;2023-01-24T08:15:59;3.60;99.90
2447;DHT22;26430;48.818;9.244;2023-01-24T08:18:26;3.50;99.90
2447;DHT22;26430;48.818;9.244;2023-01-24T08:20:55;3.60;99.90
2447;DHT22;26430;48.818;9.244;2023-01-24T08:23:20;3.60;99.90
2447;DHT22;26430;48.818;9.244;2023-01-24T08:25:46;3.60;99.90
2447;DHT22;26430;48.818;9.244;2023-01-24T08:28:11;3.70;99.90
2447;DHT22;26430;48.818;9.244;2023-01-24T08:30:37;3.70;99.90
2447;DHT22;26430;48.818;9.244;2023-01-24T08:33:04;3.70;99.90
2447;DHT22;26430;48.818;9.244;2023-01-24T08:35:31;3.60;99.90
2447;DHT22;26430;48.818;9.244;2023-01-24T08:37:57;3.70;99.90
2447;DHT22;26430;48.818;9.244;2023-01-24T08:40:23;3.80;99.90
2447;DHT22;26430;48.818;9.244;2023-01-24T08:42:49;3.80;99.90
2447;DHT22;26430;48.818;9.244;2023-01-24T08:45:15;3.80;99.90
2447;DHT22;26430;48.818;9.244;2023-01-24T08:47:40;3.80;99.90
2447;DHT22;26430;48.818;9.244;2023-01-24T08:50:06;3.80;99.90
2447;DHT22;26430;48.818;9.244;2023-01-24T08:52:32;3.90;99.90
2447;DHT22;26430;48.818;9.244;2023-01-24T08:54:58;3.90;99.90
2447;DHT22;26430;48.818;9.244;2023-01-24T08:57:23;3.80;99.90
2447;DHT22;26430;48.818;9.244;2023-01-24T08:59:49;3.80;99.90
2447;DHT22;26430;48.818;9.244;2023-01-24T09:02:15;3.90;99.90
2447;DHT22;26430;48.818;9.244;2023-01-24T09:04:42;3.90;99.90
2447;DHT22;26430;48.818;9.244;2023-01-24T09:07:10;4.00;99.90
2447;DHT22;26430;48.818;9.244;2023-01-24T09:09:36;4.00;99.90
2447;DHT22;26430;48.818;9.244;2023-01-24T09:12:02;4.10;99.90
2447;DHT22;26430;48.818;9.244;2023-01-24T09:14:27;4.20;99.90
2447;DHT22;26430;48.818;9.244;2023-01-24T09:16:54;4.30;99.90
2447;DHT22;26430;48.818;9.244;2023-01-24T09:19:20;4.20;99.90
2447;DHT22;26430;48.818;9.244;2023-01-24T09:21:46;4.10;99.90
2447;DHT22;26430;48.818;9.244;2023-01-24T09:24:16;4.00;99.90
2447;DHT22;26430;48.818;9.244;2023-01-24T09:26:43;4.00;99.90
2447;DHT22;26430;48.818;9.244;2023-01-24T09:29:09;4.00;99.90
2447;DHT22;26430;48.818;9.244;2023-01-24T09:31:34;4.00;99.90
2447;DHT22;26430;48.818;9.244;2023-01-24T09:34:00;4.00;99.90
2447;DHT22;26430;48.818;9.244;2023-01-24T09:36:26;4.00;99.90
2447;DHT22;26430;48.818;9.244;2023-01-24T09:38:53;4.00;99.90
2447;DHT22;26430;48.818;9.244;2023-01-24T09:44:02;4.00;99.90
2447;DHT22;26430;48.818;9.244;2023-01-24T09:51:54;4.00;99.90
2447;DHT22;26430;48.818;9.244;2023-01-24T09:54:39;4.00;99.90
2447;DHT22;26430;48.818;9.244;2023-01-24T09:57:20;4.00;99.90
2447;DHT22;26430;48.818;9.244;2023-01-24T09:59:49;3.90;99.90
2447;DHT22;26430;48.818;9.244;2023-01-24T10:02:18;4.00;99.90
2447;DHT22;26430;48.818;9.244;2023-01-24T10:04:46;3.90;99.90
2447;DHT22;26430;48.818;9.244;2023-01-24T10:20:44;4.10;99.90
2447;DHT22;26430;48.818;9.244;2023-01-24T10:23:27;4.00;99.90
2447;DHT22;26430;48.818;9.244;2023-01-24T10:29:09;4.20;99.90
2447;DHT22;26430;48.818;9.244;2023-01-24T10:31:37;4.10;99.90
2447;DHT22;26430;48.818;9.244;2023-01-24T10:34:15;4.20;99.90
2447;DHT22;26430;48.818;9.244;2023-01-24T10:36:46;4.20;99.90
2447;DHT22;26430;48.818;9.244;2023-01-24T10:39:14;4.20;99.90
2447;DHT22;26430;48.818;9.244;2023-01-24T10:41:40;4.30;99.90
2447;DHT22;26430;48.818;9.244;2023-01-24T10:44:14;4.20;99.90
2447;DHT22;26430;48.818;9.244;2023-01-24T10:49:29;4.20;99.90
2447;DHT22;26430;48.818;9.244;2023-01-24T10:52:14;4.20;99.90
2447;DHT22;26430;48.818;9.244;2023-01-24T10:57:29;4.30;99.90
2447;DHT22;26430;48.818;9.244;2023-01-24T10:59:56;4.30;99.90
2447;DHT22;26430;48.818;9.244;2023-01-24T11:02:25;4.30;99.90
2447;DHT22;26430;48.818;9.244;2023-01-24T11:05:03;4.40;99.90
2447;DHT22;26430;48.818;9.244;2023-01-24T11:07:32;4.50;99.90
2447;DHT22;26430;48.818;9.244;2023-01-24T11:09:59;4.50;99.90
2447;DHT22;26430;48.818;9.244;2023-01-24T11:12:27;4.50;99.90
2447;DHT22;26430;48.818;9.244;2023-01-24T11:14:53;4.40;99.90
2447;DHT22;26430;48.818;9.244;2023-01-24T11:17:45;4.50;99.90
2447;DHT22;26430;48.818;9.244;2023-01-24T11:20:28;4.60;99.90
2447;DHT22;26430;48.818;9.244;2023-01-24T11:23:02;4.60;99.90
2447;DHT22;26430;48.818;9.244;2023-01-24T11:25:28;4.70;99.90
2447;DHT22;26430;48.818;9.244;2023-01-24T11:27:54;4.60;99.90
2447;DHT22;26430;48.818;9.244;2023-01-24T11:30:21;4.60;99.90
2447;DHT22;26430;48.818;9.244;2023-01-24T11:35:46;4.60;99.90
2447;DHT22;26430;48.818;9.244;2023-01-24T11:38:28;4.60;99.90
2447;DHT22;26430;48.818;9.244;2023-01-24T11:41:10;4.50;99.90
2447;DHT22;26430;48.818;9.244;2023-01-24T11:48:56;4.60;99.90
2447;DHT22;26430;48.818;9.244;2023-01-24T11:54:17;4.50;99.90
2447;DHT22;26430;48.818;9.244;2023-01-24T11:57:02;4.50;99.90
2447;DHT22;26430;48.818;9.244;2023-01-24T11:59:57;4.50;99.90
2447;DHT22;26430;48.818;9.244;2023-01-24T12:02:51;4.40;99.90
2447;DHT22;26430;48.818;9.244;2023-01-24T12:05:44;4.50;99.90
2447;DHT22;26430;48.818;9.244;2023-01-24T12:16:56;4.60;99.90
2447;DHT22;26430;48.818;9.244;2023-01-24T12:22:19;4.80;99.90
2447;DHT22;26430;48.818;9.244;2023-01-24T12:24:52;4.80;99.90
2447;DHT22;26430;48.818;9.244;2023-01-24T12:27:23;4.80;99.90
2447;DHT22;26430;48.818;9.244;2023-01-24T12:32:54;4.80;99.90
2447;DHT22;26430;48.818;9.244;2023-01-24T12:35:32;4.70;99.90
2447;DHT22;26430;48.818;9.244;2023-01-24T12:38:22;4.60;99.90
2447;DHT22;26430;48.818;9.244;2023-01-24T12:46:15;4.50;99.90
2447;DHT22;26430;48.818;9.244;2023-01-24T12:48:50;4.60;99.90
2447;DHT22;26430;48.818;9.244;2023-01-24T12:56:23;4.70;99.90
2447;DHT22;26430;48.818;9.244;2023-01-24T12:58:52;4.70;99.90
2447;DHT22;26430;48.818;9.244;2023-01-24T13:04:16;4.60;99.90
2447;DHT22;26430;48.818;9.244;2023-01-24T13:11:57;4.60;99.90
2447;DHT22;26430;48.818;9.244;2023-01-24T13:14:32;4.60;99.90
2447;DHT22;26430;48.818;9.244;2023-01-24T13:17:29;4.60;99.90
2447;DHT22;26430;48.818;9.244;2023-01-24T13:20:18;4.50;99.90
2447;DHT22;26430;48.818;9.244;2023-01-24T13:25:38;4.40;99.90
2447;DHT22;26430;48.818;9.244;2023-01-24T13:31:31;4.40;99.90
2447;DHT22;26430;48.818;9.244;2023-01-24T13:34:03;4.40;99.90
2447;DHT22;26430;48.818;9.244;2023-01-24T13:36:35;4.50;99.90
2447;DHT22;26430;48.818;9.244;2023-01-24T13:39:03;4.50;99.90
2447;DHT22;26430;48.818;9.244;2023-01-24T13:44:02;4.60;99.90
2447;DHT22;26430;48.818;9.244;2023-01-24T13:51:53;4.50;99.90
2447;DHT22;26430;48.818;9.244;2023-01-24T13:57:14;4.50;99.90
2447;DHT22;26430;48.818;9.244;2023-01-24T13:59:42;4.40;99.90
2447;DHT22;26430;48.818;9.244;2023-01-24T14:05:42;4.50;99.90
2447;DHT22;26430;48.818;9.244;2023-01-24T14:10:46;4.40;99.90
2447;DHT22;26430;48.818;9.244;2023-01-24T14:21:30;4.40;99.90
2447;DHT22;26430;48.818;9.244;2023-01-24T14:24:00;4.40;99.90
2447;DHT22;26430;48.818;9.244;2023-01-24T14:26:28;4.30;99.90
2447;DHT22;26430;48.818;9.244;2023-01-24T14:29:03;4.40;99.90
2447;DHT22;26430;48.818;9.244;2023-01-24T14:31:34;4.40;99.90
2447;DHT22;26430;48.818;9.244;2023-01-24T14:36:35;4.40;99.90
2447;DHT22;26430;48.818;9.244;2023-01-24T14:41:36;4.50;99.90
2447;DHT22;26430;48.818;9.244;2023-01-24T14:44:02;4.50;99.90
2447;DHT22;26430;48.818;9.244;2023-01-24T14:46:27;4.60;99.90
2447;DHT22;26430;48.818;9.244;2023-01-24T14:48:53;4.50;99.90
2447;DHT22;26430;48.818;9.244;2023-01-24T14:51:23;4.40;99.90
2447;DHT22;26430;48.818;9.244;2023-01-24T14:53:51;4.30;99.90
2447;DHT22;26430;48.818;9.244;2023-01-24T14:56:18;4.40;99.90
2447;DHT22;26430;48.818;9.244;2023-01-24T14:58:44;4.40;99.90
2447;DHT22;26430;48.818;9.244;2023-01-24T15:01:31;4.30;99.90
2447;DHT22;26430;48.818;9.244;2023-01-24T15:03:58;4.50;99.90
2447;DHT22;26430;48.818;9.244;2023-01-24T15:06:26;4.50;99.90
2447;DHT22;26430;48.818;9.244;2023-01-24T15:08:54;4.50;99.90
2447;DHT22;26430;48.818;9.244;2023-01-24T15:11:23;4.40;99.90
2447;DHT22;26430;48.818;9.244;2023-01-24T15:13:54;4.40;99.90
2447;DHT22;26430;48.818;9.244;2023-01-24T15:17:04;4.50;99.90
2447;DHT22;26430;48.818;9.244;2023-01-24T15:21:46;4.50;99.90
2447;DHT22;26430;48.818;9.244;2023-01-24T15:24:32;4.40;99.90
2447;DHT22;26430;48.818;9.244;2023-01-24T15:26:59;4.30;99.90
2447;DHT22;26430;48.818;9.244;2023-01-24T15:32:28;4.30;99.90
2447;DHT22;26430;48.818;9.244;2023-01-24T15:35:25;4.20;99.90
2447;DHT22;26430;48.818;9.244;2023-01-24T15:43:47;4.10;99.90
2447;DHT22;26430;48.818;9.244;2023-01-24T15:46:22;4.00;99.90
2447;DHT22;26430;48.818;9.244;2023-01-24T15:54:34;4.10;99.90
2447;DHT22;26430;48.818;9.244;2023-01-24T15:57:47;4.00;99.90
2447;DHT22;26430;48.818;9.244;2023-01-24T15:59:51;4.00;99.90
2447;DHT22;26430;48.818;9.244;2023-01-24T16:02:17;4.00;99.90
2447;DHT22;26430;48.818;9.244;2023-01-24T16:04:43;4.00;99.90
2447;DHT22;26430;48.818;9.244;2023-01-24T16:07:10;3.90;99.90
2447;DHT22;26430;48.818;9.244;2023-01-24T16:09:36;3.90;99.90
2447;DHT22;26430;48.818;9.244;2023-01-24T16:12:02;3.90;99.90
2447;DHT22;26430;48.818;9.244;2023-01-24T16:14:28;3.80;99.90
2447;DHT22;26430;48.818;9.244;2023-01-24T16:17:00;3.80;99.90
2447;DHT22;26430;48.818;9.244;2023-01-24T16:19:28;3.80;99.90
2447;DHT22;26430;48.818;9.244;2023-01-24T16:21:53;3.80;99.90
2447;DHT22;26430;48.818;9.244;2023-01-24T16:24:19;3.80;99.90
2447;DHT22;26430;48.818;9.244;2023-01-24T16:26:52;3.80;99.90
2447;DHT22;26430;48.818;9.244;2023-01-24T16:29:23;3.80;99.90
2447;DHT22;26430;48.818;9.244;2023-01-24T16:31:50;3.90;99.90
2447;DHT22;26430;48.818;9.244;2023-01-24T16:34:16;3.80;99.90
2447;DHT22;26430;48.818;9.244;2023-01-24T16:36:43;3.80;99.90
2447;DHT22;26430;48.818;9.244;2023-01-24T16:39:18;3.70;99.90
2447;DHT22;26430;48.818;9.244;2023-01-24T16:41:45;3.70;99.90
2447;DHT22;26430;48.818;9.244;2023-01-24T16:44:12;3.80;99.90
2447;DHT22;26430;48.818;9.244;2023-01-24T16:46:38;3.90;99.90
2447;DHT22;26430;48.818;9.244;2023-01-24T16:49:04;3.90;99.90
2447;DHT22;26430;48.818;9.244;2023-01-24T16:51:29;3.90;99.90
2447;DHT22;26430;48.818;9.244;2023-01-24T16:53:55;3.80;99.90
2447;DHT22;26430;48.818;9.244;2023-01-24T16:56:22;3.90;99.90
2447;DHT22;26430;48.818;9.244;2023-01-24T16:58:48;3.80;99.90
2447;DHT22;26430;48.818;9.244;2023-01-24T17:01:13;3.80;99.90
2447;DHT22;26430;48.818;9.244;2023-01-24T17:03:39;3.80;99.90
2447;DHT22;26430;48.818;9.244;2023-01-24T17:06:10;3.90;99.90
2447;DHT22;26430;48.818;9.244;2023-01-24T17:08:36;3.80;99.90
2447;DHT22;26430;48.818;9.244;2023-01-24T17:11:07;3.70;99.90
2447;DHT22;26430;48.818;9.244;2023-01-24T17:13:33;3.80;99.90
2447;DHT22;26430;48.818;9.244;2023-01-24T17:16:07;3.70;99.90
2447;DHT22;26430;48.818;9.244;2023-01-24T17:18:34;3.70;99.90
2447;DHT22;26430;48.818;9.244;2023-01-24T17:21:05;3.70;99.90
2447;DHT22;26430;48.818;9.244;2023-01-24T17:23:34;3.70;99.90
2447;DHT22;26430;48.818;9.244;2023-01-24T17:28:30;3.70;99.90
2447;DHT22;26430;48.818;9.244;2023-01-24T17:30:56;3.60;99.90
2447;DHT22;26430;48.818;9.244;2023-01-24T17:33:22;3.60;99.90
2447;DHT22;26430;48.818;9.244;2023-01-24T17:35:47;3.70;99.90
2447;DHT22;26430;48.818;9.244;2023-01-24T17:38:13;3.60;99.90
2447;DHT22;26430;48.818;9.244;2023-01-24T17:40:38;3.80;99.90
2447;DHT22;26430;48.818;9.244;2023-01-24T17:43:04;3.70;99.90
2447;DHT22;26430;48.818;9.244;2023-01-24T17:45:30;3.70;99.90
2447;DHT22;26430;48.818;9.244;2023-01-24T17:47:56;3.70;99.90
2447;DHT22;26430;48.818;9.244;2023-01-24T17:50:21;3.70;99.90
2447;DHT22;26430;48.818;9.244;2023-01-24T17:52:48;3.70;99.90
2447;DHT22;26430;48.818;9.244;2023-01-24T17:55:14;3.70;99.90
2447;DHT22;26430;48.818;9.244;2023-01-24T17:57:41;3.60;99.90
2447;DHT22;26430;48.818;9.244;2023-01-24T18:00:08;3.40;99.90
2447;DHT22;26430;48.818;9.244;2023-01-24T18:02:34;3.60;99.90
2447;DHT22;26430;48.818;9.244;2023-01-24T18:05:00;3.70;99.90
2447;DHT22;26430;48.818;9.244;2023-01-24T18:07:25;3.70;99.90
2447;DHT22;26430;48.818;9.244;2023-01-24T18:09:51;3.60;99.90
2447;DHT22;26430;48.818;9.244;2023-01-24T18:12:16;3.70;99.90
2447;DHT22;26430;48.818;9.244;2023-01-24T18:14:42;3.60;99.90
2447;DHT22;26430;48.818;9.244;2023-01-24T18:17:08;3.70;99.90
2447;DHT22;26430;48.818;9.244;2023-01-24T18:19:34;3.80;99.90
2447;DHT22;26430;48.818;9.244;2023-01-24T18:22:01;3.70;99.90
2447;DHT22;26430;48.818;9.244;2023-01-24T18:24:26;3.70;99.90
2447;DHT22;26430;48.818;9.244;2023-01-24T18:26:52;3.70;99.90
2447;DHT22;26430;48.818;9.244;2023-01-24T18:29:18;3.70;99.90
2447;DHT22;26430;48.818;9.244;2023-01-24T18:31:43;3.70;99.90
2447;DHT22;26430;48.818;9.244;2023-01-24T18:34:10;3.70;99.90